sensor_id;sensor_type;location;lat;lon;timestamp;pressure;altitude;pressure_sealevel;temperature;humidity
13486;BME280;6815;59.336;17.998;2022-12-07T00:00:53;78327.84;;;-145.37;82.91
13486;BME280;6815;59.336;17.998;2022-12-07T00:03:18;78315.78;;;-145.37;83.04
13486;BME280;6815;59.336;17.998;2022-12-07T00:05:44;78313.78;;;-145.37;82.69
13486;BME280;6815;59.336;17.998;2022-12-07T00:08:11;78329.88;;;-145.37;83.11
13486;BME280;6815;59.336;17.998;2022-12-07T00:10:36;78325.84;;;-145.37;83.22
13486;BME280;6815;59.336;17.998;2022-12-07T00:13:02;78323.84;;;-145.37;82.91
13486;BME280;6815;59.336;17.998;2022-12-07T00:15:27;78323.84;;;-145.37;82.58
13486;BME280;6815;59.336;17.998;2022-12-07T00:17:53;78307.75;;;-145.37;82.44
13486;BME280;6815;59.336;17.998;2022-12-07T00:20:18;78325.84;;;-145.37;82.53
13486;BME280;6815;59.336;17.998;2022-12-07T00:22:43;78347.97;;;-145.37;83.46
13486;BME280;6815;59.336;17.998;2022-12-07T00:25:09;78323.84;;;-145.37;83.12
13486;BME280;6815;59.336;17.998;2022-12-07T00:27:34;78319.81;;;-145.37;83.01
13486;BME280;6815;59.336;17.998;2022-12-07T00:30:00;78325.84;;;-145.37;82.88
13486;BME280;6815;59.336;17.998;2022-12-07T00:32:26;78315.78;;;-145.37;82.71
13486;BME280;6815;59.336;17.998;2022-12-07T00:34:51;78303.72;;;-145.37;82.37
13486;BME280;6815;59.336;17.998;2022-12-07T00:37:17;78349.97;;;-145.37;83.49
13486;BME280;6815;59.336;17.998;2022-12-07T00:39:42;78339.94;;;-145.37;82.91
13486;BME280;6815;59.336;17.998;2022-12-07T00:42:07;78343.94;;;-145.37;83.33
13486;BME280;6815;59.336;17.998;2022-12-07T00:44:33;78352.00;;;-145.37;82.48
13486;BME280;6815;59.336;17.998;2022-12-07T00:46:58;78352.00;;;-145.37;83.14
13486;BME280;6815;59.336;17.998;2022-12-07T00:49:24;78364.06;;;-145.37;83.50
13486;BME280;6815;59.336;17.998;2022-12-07T00:51:49;78358.03;;;-145.37;83.33
13486;BME280;6815;59.336;17.998;2022-12-07T00:54:15;78345.97;;;-145.37;83.14
13486;BME280;6815;59.336;17.998;2022-12-07T00:56:40;78354.00;;;-145.37;83.06
13486;BME280;6815;59.336;17.998;2022-12-07T00:59:06;78343.94;;;-145.37;83.05
13486;BME280;6815;59.336;17.998;2022-12-07T01:01:34;78323.84;;;-145.37;82.80
13486;BME280;6815;59.336;17.998;2022-12-07T01:04:00;78319.81;;;-145.37;82.21
13486;BME280;6815;59.336;17.998;2022-12-07T01:06:27;78329.88;;;-145.37;82.53
13486;BME280;6815;59.336;17.998;2022-12-07T01:08:54;78325.84;;;-145.37;82.96
13486;BME280;6815;59.336;17.998;2022-12-07T01:11:22;78331.88;;;-145.37;82.89
13486;BME280;6815;59.336;17.998;2022-12-07T01:13:51;78323.84;;;-145.37;82.52
13486;BME280;6815;59.336;17.998;2022-12-07T01:16:17;78311.75;;;-145.37;82.57
13486;BME280;6815;59.336;17.998;2022-12-07T01:18:45;78319.81;;;-145.37;82.74
13486;BME280;6815;59.336;17.998;2022-12-07T01:21:14;78307.75;;;-145.37;82.49
13486;BME280;6815;59.336;17.998;2022-12-07T01:23:40;78337.91;;;-145.37;82.41
13486;BME280;6815;59.336;17.998;2022-12-07T01:26:09;78321.81;;;-145.37;82.83
13486;BME280;6815;59.336;17.998;2022-12-07T01:28:35;78319.81;;;-145.37;82.72
13486;BME280;6815;59.336;17.998;2022-12-07T01:31:06;78313.78;;;-145.37;82.42
13486;BME280;6815;59.336;17.998;2022-12-07T01:33:34;78341.94;;;-145.37;83.03
13486;BME280;6815;59.336;17.998;2022-12-07T01:38:33;78311.75;;;-145.37;82.78
13486;BME280;6815;59.336;17.998;2022-12-07T01:41:00;78321.81;;;-145.37;82.83
13486;BME280;6815;59.336;17.998;2022-12-07T01:43:28;78315.78;;;-145.37;82.71
13486;BME280;6815;59.336;17.998;2022-12-07T01:45:55;78313.78;;;-145.37;82.49
13486;BME280;6815;59.336;17.998;2022-12-07T01:48:25;78311.75;;;-145.37;82.47
13486;BME280;6815;59.336;17.998;2022-12-07T01:50:53;78315.78;;;-145.37;82.39
13486;BME280;6815;59.336;17.998;2022-12-07T01:53:20;78331.88;;;-145.37;83.16
13486;BME280;6815;59.336;17.998;2022-12-07T01:55:49;78339.94;;;-145.37;83.32
13486;BME280;6815;59.336;17.998;2022-12-07T01:58:17;78323.84;;;-145.37;82.94
13486;BME280;6815;59.336;17.998;2022-12-07T02:00:43;78319.81;;;-145.37;83.39
13486;BME280;6815;59.336;17.998;2022-12-07T02:03:32;78303.72;;;-145.37;82.88
13486;BME280;6815;59.336;17.998;2022-12-07T02:06:00;78309.75;;;-145.37;82.86
13486;BME280;6815;59.336;17.998;2022-12-07T02:08:25;78305.72;;;-145.37;82.72
13486;BME280;6815;59.336;17.998;2022-12-07T02:10:51;78317.78;;;-145.37;83.08
13486;BME280;6815;59.336;17.998;2022-12-07T02:13:23;78315.78;;;-145.37;83.19
13486;BME280;6815;59.336;17.998;2022-12-07T02:27:56;78323.84;;;-145.37;84.39
13486;BME280;6815;59.336;17.998;2022-12-07T02:30:28;78305.72;;;-145.37;83.61
13486;BME280;6815;59.336;17.998;2022-12-07T02:33:11;78319.81;;;-145.37;83.65
13486;BME280;6815;59.336;17.998;2022-12-07T02:35:43;78309.75;;;-145.37;83.42
13486;BME280;6815;59.336;17.998;2022-12-07T02:38:20;78299.69;;;-145.37;83.39
13486;BME280;6815;59.336;17.998;2022-12-07T02:40:53;78313.78;;;-145.37;83.87
13486;BME280;6815;59.336;17.998;2022-12-07T02:43:26;78293.66;;;-145.37;83.56
13486;BME280;6815;59.336;17.998;2022-12-07T02:45:56;78309.75;;;-145.37;84.18
13486;BME280;6815;59.336;17.998;2022-12-07T02:48:24;78297.69;;;-145.37;84.18
13486;BME280;6815;59.336;17.998;2022-12-07T02:50:52;78303.72;;;-145.37;83.97
13486;BME280;6815;59.336;17.998;2022-12-07T02:53:34;78313.78;;;-145.37;83.97
13486;BME280;6815;59.336;17.998;2022-12-07T03:07:35;78293.66;;;-145.37;83.55
13486;BME280;6815;59.336;17.998;2022-12-07T03:10:32;78293.66;;;-145.37;83.72
13486;BME280;6815;59.336;17.998;2022-12-07T03:13:09;78295.66;;;-145.37;83.88
13486;BME280;6815;59.336;17.998;2022-12-07T03:18:16;78311.75;;;-145.37;84.51
13486;BME280;6815;59.336;17.998;2022-12-07T03:20:46;78299.69;;;-145.37;83.89
13486;BME280;6815;59.336;17.998;2022-12-07T03:23:14;78289.63;;;-145.37;83.73
13486;BME280;6815;59.336;17.998;2022-12-07T03:25:44;78295.66;;;-145.37;83.66
13486;BME280;6815;59.336;17.998;2022-12-07T03:39:07;78343.94;;;-145.37;84.53
13486;BME280;6815;59.336;17.998;2022-12-07T03:41:35;78313.78;;;-145.37;83.86
13486;BME280;6815;59.336;17.998;2022-12-07T03:44:02;78343.94;;;-145.37;84.31
13486;BME280;6815;59.336;17.998;2022-12-07T03:51:45;78307.75;;;-145.37;83.49
13486;BME280;6815;59.336;17.998;2022-12-07T03:54:21;78303.72;;;-145.37;83.05
13486;BME280;6815;59.336;17.998;2022-12-07T03:56:49;78327.84;;;-145.37;83.56
13486;BME280;6815;59.336;17.998;2022-12-07T03:59:16;78295.66;;;-145.37;83.22
13486;BME280;6815;59.336;17.998;2022-12-07T04:01:44;78317.78;;;-145.37;84.02
13486;BME280;6815;59.336;17.998;2022-12-07T04:04:10;78313.78;;;-145.37;84.00
13486;BME280;6815;59.336;17.998;2022-12-07T04:06:35;78301.69;;;-145.37;83.66
13486;BME280;6815;59.336;17.998;2022-12-07T04:09:00;78295.66;;;-145.37;83.98
13486;BME280;6815;59.336;17.998;2022-12-07T04:11:26;78279.56;;;-145.37;83.66
13486;BME280;6815;59.336;17.998;2022-12-07T04:13:51;78275.56;;;-145.37;83.80
13486;BME280;6815;59.336;17.998;2022-12-07T04:16:35;78279.56;;;-145.37;83.68
13486;BME280;6815;59.336;17.998;2022-12-07T04:19:01;78283.59;;;-145.37;83.92
13486;BME280;6815;59.336;17.998;2022-12-07T04:21:26;78275.56;;;-145.37;83.87
13486;BME280;6815;59.336;17.998;2022-12-07T04:23:51;78271.53;;;-145.37;83.91
13486;BME280;6815;59.336;17.998;2022-12-07T04:26:17;78279.56;;;-145.37;83.92
13486;BME280;6815;59.336;17.998;2022-12-07T04:28:42;78295.66;;;-145.37;84.26
13486;BME280;6815;59.336;17.998;2022-12-07T04:31:08;78269.53;;;-145.37;83.97
13486;BME280;6815;59.336;17.998;2022-12-07T04:33:35;78281.59;;;-145.37;84.23
13486;BME280;6815;59.336;17.998;2022-12-07T04:36:00;78267.50;;;-145.37;84.17
13486;BME280;6815;59.336;17.998;2022-12-07T04:38:26;78295.66;;;-145.37;84.93
13486;BME280;6815;59.336;17.998;2022-12-07T04:40:51;78287.63;;;-145.37;84.67
13486;BME280;6815;59.336;17.998;2022-12-07T04:43:17;78289.63;;;-145.37;84.98
13486;BME280;6815;59.336;17.998;2022-12-07T04:45:49;78265.50;;;-145.37;84.34
13486;BME280;6815;59.336;17.998;2022-12-07T04:48:15;78255.44;;;-145.37;84.23
13486;BME280;6815;59.336;17.998;2022-12-07T04:50:41;78247.41;;;-145.37;83.96
13486;BME280;6815;59.336;17.998;2022-12-07T04:53:06;78237.34;;;-145.37;83.74
13486;BME280;6815;59.336;17.998;2022-12-07T04:55:32;78267.50;;;-145.37;84.17
13486;BME280;6815;59.336;17.998;2022-12-07T04:57:57;78239.34;;;-145.37;83.84
13486;BME280;6815;59.336;17.998;2022-12-07T05:00:23;78267.50;;;-145.37;84.31
13486;BME280;6815;59.336;17.998;2022-12-07T05:02:48;78239.34;;;-145.37;84.10
13486;BME280;6815;59.336;17.998;2022-12-07T05:05:13;78239.34;;;-145.37;83.73
13486;BME280;6815;59.336;17.998;2022-12-07T05:07:40;78241.34;;;-145.37;83.87
13486;BME280;6815;59.336;17.998;2022-12-07T05:10:06;78239.34;;;-145.37;83.60
13486;BME280;6815;59.336;17.998;2022-12-07T05:12:32;78241.34;;;-145.37;83.66
13486;BME280;6815;59.336;17.998;2022-12-07T05:14:58;78239.34;;;-145.37;84.08
13486;BME280;6815;59.336;17.998;2022-12-07T05:17:24;78233.31;;;-145.37;83.28
13486;BME280;6815;59.336;17.998;2022-12-07T05:19:50;78243.38;;;-145.37;83.64
13486;BME280;6815;59.336;17.998;2022-12-07T05:22:17;78257.44;;;-145.37;83.62
13486;BME280;6815;59.336;17.998;2022-12-07T05:24:42;78239.34;;;-145.37;83.42
13486;BME280;6815;59.336;17.998;2022-12-07T05:27:08;78237.34;;;-145.37;83.61
13486;BME280;6815;59.336;17.998;2022-12-07T05:29:33;78233.31;;;-145.37;83.83
13486;BME280;6815;59.336;17.998;2022-12-07T05:31:59;78237.34;;;-145.37;83.04
13486;BME280;6815;59.336;17.998;2022-12-07T05:34:24;78217.22;;;-145.37;83.17
13486;BME280;6815;59.336;17.998;2022-12-07T05:36:50;78239.34;;;-145.37;83.96
13486;BME280;6815;59.336;17.998;2022-12-07T05:39:15;78229.28;;;-145.37;83.54
13486;BME280;6815;59.336;17.998;2022-12-07T05:41:41;78237.34;;;-145.37;83.72
13486;BME280;6815;59.336;17.998;2022-12-07T05:44:25;78239.34;;;-145.37;83.89
13486;BME280;6815;59.336;17.998;2022-12-07T05:46:51;78217.22;;;-145.37;83.30
13486;BME280;6815;59.336;17.998;2022-12-07T05:49:16;78267.50;;;-145.37;83.79
13486;BME280;6815;59.336;17.998;2022-12-07T05:51:42;78251.41;;;-145.37;84.18
13486;BME280;6815;59.336;17.998;2022-12-07T05:54:07;78227.28;;;-145.37;83.87
13486;BME280;6815;59.336;17.998;2022-12-07T05:56:33;78223.25;;;-145.37;83.56
13486;BME280;6815;59.336;17.998;2022-12-07T05:58:59;78233.31;;;-145.37;84.05
13486;BME280;6815;59.336;17.998;2022-12-07T06:01:43;78229.28;;;-145.37;83.93
13486;BME280;6815;59.336;17.998;2022-12-07T06:04:09;78229.28;;;-145.37;83.47
13486;BME280;6815;59.336;17.998;2022-12-07T06:06:36;78231.31;;;-145.37;83.50
13486;BME280;6815;59.336;17.998;2022-12-07T06:09:02;78243.38;;;-145.37;83.69
13486;BME280;6815;59.336;17.998;2022-12-07T06:11:28;78215.22;;;-145.37;83.32
13486;BME280;6815;59.336;17.998;2022-12-07T06:14:13;78225.28;;;-145.37;83.53
13486;BME280;6815;59.336;17.998;2022-12-07T06:16:38;78215.22;;;-145.37;83.09
13486;BME280;6815;59.336;17.998;2022-12-07T06:19:04;78239.34;;;-145.37;83.57
13486;BME280;6815;59.336;17.998;2022-12-07T06:21:30;78245.38;;;-145.37;83.92
13486;BME280;6815;59.336;17.998;2022-12-07T06:23:55;78261.47;;;-145.37;83.99
13486;BME280;6815;59.336;17.998;2022-12-07T06:26:21;78221.25;;;-145.37;83.52
13486;BME280;6815;59.336;17.998;2022-12-07T06:28:46;78235.31;;;-145.37;83.83
13486;BME280;6815;59.336;17.998;2022-12-07T06:31:12;78245.38;;;-145.37;84.09
13486;BME280;6815;59.336;17.998;2022-12-07T06:33:37;78267.50;;;-145.37;84.25
13486;BME280;6815;59.336;17.998;2022-12-07T06:36:03;78263.47;;;-145.37;84.54
13486;BME280;6815;59.336;17.998;2022-12-07T06:38:28;78267.50;;;-145.37;84.14
13486;BME280;6815;59.336;17.998;2022-12-07T06:40:54;78259.47;;;-145.37;84.40
13486;BME280;6815;59.336;17.998;2022-12-07T06:43:20;78251.41;;;-145.37;84.13
13486;BME280;6815;59.336;17.998;2022-12-07T06:45:45;78237.34;;;-145.37;83.58
13486;BME280;6815;59.336;17.998;2022-12-07T06:48:11;78251.41;;;-145.37;83.96
13486;BME280;6815;59.336;17.998;2022-12-07T06:50:36;78247.41;;;-145.37;83.78
13486;BME280;6815;59.336;17.998;2022-12-07T06:53:02;78271.53;;;-145.37;83.87
13486;BME280;6815;59.336;17.998;2022-12-07T06:55:27;78277.56;;;-145.37;84.35
13486;BME280;6815;59.336;17.998;2022-12-07T06:57:53;78269.53;;;-145.37;84.03
13486;BME280;6815;59.336;17.998;2022-12-07T07:00:19;78275.56;;;-145.37;84.04
13486;BME280;6815;59.336;17.998;2022-12-07T07:02:44;78251.41;;;-145.37;83.07
13486;BME280;6815;59.336;17.998;2022-12-07T07:05:10;78277.56;;;-145.37;83.39
13486;BME280;6815;59.336;17.998;2022-12-07T07:07:35;78277.56;;;-145.37;83.88
13486;BME280;6815;59.336;17.998;2022-12-07T07:10:10;78281.59;;;-145.37;83.86
13486;BME280;6815;59.336;17.998;2022-12-07T07:12:35;78281.59;;;-145.37;83.89
13486;BME280;6815;59.336;17.998;2022-12-07T07:15:00;78263.47;;;-145.37;83.39
13486;BME280;6815;59.336;17.998;2022-12-07T07:17:26;78267.50;;;-145.37;82.92
13486;BME280;6815;59.336;17.998;2022-12-07T07:19:51;78257.44;;;-145.37;83.05
13486;BME280;6815;59.336;17.998;2022-12-07T07:22:17;78261.47;;;-145.37;82.88
13486;BME280;6815;59.336;17.998;2022-12-07T07:24:42;78271.53;;;-145.37;83.05
13486;BME280;6815;59.336;17.998;2022-12-07T07:27:08;78273.53;;;-145.37;83.13
13486;BME280;6815;59.336;17.998;2022-12-07T07:29:33;78283.59;;;-145.37;83.10
13486;BME280;6815;59.336;17.998;2022-12-07T07:31:59;78273.53;;;-145.37;82.75
13486;BME280;6815;59.336;17.998;2022-12-07T07:34:25;78299.69;;;-145.37;83.55
13486;BME280;6815;59.336;17.998;2022-12-07T07:36:50;78281.59;;;-145.37;83.47
13486;BME280;6815;59.336;17.998;2022-12-07T07:39:16;78279.56;;;-145.37;83.01
13486;BME280;6815;59.336;17.998;2022-12-07T07:41:41;78283.59;;;-145.37;83.44
13486;BME280;6815;59.336;17.998;2022-12-07T07:44:06;78287.63;;;-145.37;83.52
13486;BME280;6815;59.336;17.998;2022-12-07T07:46:33;78261.47;;;-145.37;82.93
13486;BME280;6815;59.336;17.998;2022-12-07T07:48:59;78271.53;;;-145.37;82.44
13486;BME280;6815;59.336;17.998;2022-12-07T07:51:24;78259.47;;;-145.37;82.01
13486;BME280;6815;59.336;17.998;2022-12-07T07:53:50;78295.66;;;-145.37;82.94
13486;BME280;6815;59.336;17.998;2022-12-07T07:56:15;78293.66;;;-145.37;83.27
13486;BME280;6815;59.336;17.998;2022-12-07T07:58:40;78283.59;;;-145.37;82.85
13486;BME280;6815;59.336;17.998;2022-12-07T08:01:07;78303.72;;;-145.37;83.25
13486;BME280;6815;59.336;17.998;2022-12-07T08:03:33;78279.56;;;-145.37;82.58
13486;BME280;6815;59.336;17.998;2022-12-07T08:05:59;78291.66;;;-145.37;82.71
13486;BME280;6815;59.336;17.998;2022-12-07T08:08:24;78277.56;;;-145.37;82.42
13486;BME280;6815;59.336;17.998;2022-12-07T08:10:50;78273.53;;;-145.37;82.14
13486;BME280;6815;59.336;17.998;2022-12-07T08:13:16;78279.56;;;-145.37;82.64
13486;BME280;6815;59.336;17.998;2022-12-07T08:15:46;78279.56;;;-145.37;82.73
13486;BME280;6815;59.336;17.998;2022-12-07T08:18:13;78309.75;;;-145.37;82.94
13486;BME280;6815;59.336;17.998;2022-12-07T08:20:40;78279.56;;;-145.37;82.43
13486;BME280;6815;59.336;17.998;2022-12-07T08:23:06;78281.59;;;-145.37;82.74
13486;BME280;6815;59.336;17.998;2022-12-07T08:25:32;78289.63;;;-145.37;82.89
13486;BME280;6815;59.336;17.998;2022-12-07T08:27:58;78303.72;;;-145.37;83.28
13486;BME280;6815;59.336;17.998;2022-12-07T08:30:26;78269.53;;;-145.37;82.65
13486;BME280;6815;59.336;17.998;2022-12-07T08:32:51;78271.53;;;-145.37;82.54
13486;BME280;6815;59.336;17.998;2022-12-07T08:35:16;78269.53;;;-145.37;82.27
13486;BME280;6815;59.336;17.998;2022-12-07T08:37:42;78267.50;;;-145.37;82.44
13486;BME280;6815;59.336;17.998;2022-12-07T08:40:09;78285.63;;;-145.37;82.58
13486;BME280;6815;59.336;17.998;2022-12-07T08:42:35;78273.53;;;-145.37;82.76
13486;BME280;6815;59.336;17.998;2022-12-07T08:45:10;78259.47;;;-145.37;82.46
13486;BME280;6815;59.336;17.998;2022-12-07T08:47:40;78265.50;;;-145.37;82.69
13486;BME280;6815;59.336;17.998;2022-12-07T08:50:08;78255.44;;;-145.37;82.32
13486;BME280;6815;59.336;17.998;2022-12-07T08:52:35;78257.44;;;-145.37;81.91
13486;BME280;6815;59.336;17.998;2022-12-07T08:55:01;78273.53;;;-145.37;82.41
13486;BME280;6815;59.336;17.998;2022-12-07T08:57:29;78253.44;;;-145.37;82.35
13486;BME280;6815;59.336;17.998;2022-12-07T08:59:54;78235.31;;;-145.37;81.74
13486;BME280;6815;59.336;17.998;2022-12-07T09:02:20;78247.41;;;-145.37;82.31
13486;BME280;6815;59.336;17.998;2022-12-07T09:04:45;78263.47;;;-145.37;82.36
13486;BME280;6815;59.336;17.998;2022-12-07T09:07:11;78261.47;;;-145.37;82.62
13486;BME280;6815;59.336;17.998;2022-12-07T09:09:37;78255.44;;;-145.37;82.71
13486;BME280;6815;59.336;17.998;2022-12-07T09:12:02;78247.41;;;-145.37;82.46
13486;BME280;6815;59.336;17.998;2022-12-07T09:14:28;78241.34;;;-145.37;82.33
13486;BME280;6815;59.336;17.998;2022-12-07T09:16:53;78245.38;;;-145.37;82.65
13486;BME280;6815;59.336;17.998;2022-12-07T09:19:19;78231.31;;;-145.37;82.13
13486;BME280;6815;59.336;17.998;2022-12-07T09:21:44;78243.38;;;-145.37;82.57
13486;BME280;6815;59.336;17.998;2022-12-07T09:24:11;78249.41;;;-145.37;82.61
13486;BME280;6815;59.336;17.998;2022-12-07T09:26:37;78219.22;;;-145.37;82.14
13486;BME280;6815;59.336;17.998;2022-12-07T09:29:04;78257.44;;;-145.37;82.83
13486;BME280;6815;59.336;17.998;2022-12-07T09:31:30;78249.41;;;-145.37;83.03
13486;BME280;6815;59.336;17.998;2022-12-07T09:33:57;78249.41;;;-145.37;83.51
13486;BME280;6815;59.336;17.998;2022-12-07T09:36:23;78249.41;;;-145.37;82.80
13486;BME280;6815;59.336;17.998;2022-12-07T09:38:49;78261.47;;;-145.37;82.88
13486;BME280;6815;59.336;17.998;2022-12-07T09:41:14;78277.56;;;-145.37;83.81
13486;BME280;6815;59.336;17.998;2022-12-07T09:43:41;78239.34;;;-145.37;83.43
13486;BME280;6815;59.336;17.998;2022-12-07T09:46:11;78253.44;;;-145.37;83.55
13486;BME280;6815;59.336;17.998;2022-12-07T09:48:38;78259.47;;;-145.37;84.08
13486;BME280;6815;59.336;17.998;2022-12-07T09:51:19;78227.28;;;-145.37;83.66
13486;BME280;6815;59.336;17.998;2022-12-07T09:53:46;78249.41;;;-145.37;83.26
13486;BME280;6815;59.336;17.998;2022-12-07T09:56:14;78257.44;;;-145.37;83.36
13486;BME280;6815;59.336;17.998;2022-12-07T09:58:42;78249.41;;;-145.37;83.54
13486;BME280;6815;59.336;17.998;2022-12-07T10:03:34;78245.38;;;-145.37;83.57
13486;BME280;6815;59.336;17.998;2022-12-07T10:06:01;78245.38;;;-145.37;83.73
13486;BME280;6815;59.336;17.998;2022-12-07T10:08:26;78259.47;;;-145.37;84.23
13486;BME280;6815;59.336;17.998;2022-12-07T10:10:54;78229.28;;;-145.37;83.76
13486;BME280;6815;59.336;17.998;2022-12-07T10:13:34;78227.28;;;-145.37;83.08
13486;BME280;6815;59.336;17.998;2022-12-07T10:16:00;78203.13;;;-145.37;82.30
13486;BME280;6815;59.336;17.998;2022-12-07T10:18:36;78199.13;;;-145.37;82.35
13486;BME280;6815;59.336;17.998;2022-12-07T10:24:01;78247.41;;;-145.37;83.25
13486;BME280;6815;59.336;17.998;2022-12-07T10:28:59;78237.34;;;-145.37;83.87
13486;BME280;6815;59.336;17.998;2022-12-07T10:31:25;78233.31;;;-145.37;83.50
13486;BME280;6815;59.336;17.998;2022-12-07T10:33:56;78221.25;;;-145.37;83.55
13486;BME280;6815;59.336;17.998;2022-12-07T10:41:25;78207.16;;;-145.37;83.23
13486;BME280;6815;59.336;17.998;2022-12-07T10:43:53;78191.06;;;-145.37;83.00
13486;BME280;6815;59.336;17.998;2022-12-07T10:49:07;78201.13;;;-145.37;82.77
13486;BME280;6815;59.336;17.998;2022-12-07T10:52:10;78187.03;;;-145.37;82.89
13486;BME280;6815;59.336;17.998;2022-12-07T11:00:24;78168.94;;;-145.37;82.86
13486;BME280;6815;59.336;17.998;2022-12-07T11:06:00;78174.97;;;-145.37;82.78
13486;BME280;6815;59.336;17.998;2022-12-07T11:11:13;78164.91;;;-145.37;83.45
13486;BME280;6815;59.336;17.998;2022-12-07T11:18:47;78148.81;;;-145.37;83.23
13486;BME280;6815;59.336;17.998;2022-12-07T11:21:39;78158.88;;;-145.37;83.33
13486;BME280;6815;59.336;17.998;2022-12-07T11:24:20;78140.78;;;-145.37;83.02
13486;BME280;6815;59.336;17.998;2022-12-07T11:30:10;78122.69;;;-145.37;82.89
13486;BME280;6815;59.336;17.998;2022-12-07T11:38:20;78106.59;;;-145.37;82.31
13486;BME280;6815;59.336;17.998;2022-12-07T11:40:53;78108.59;;;-145.37;82.14
13486;BME280;6815;59.336;17.998;2022-12-07T11:43:32;78116.66;;;-145.37;82.58
13486;BME280;6815;59.336;17.998;2022-12-07T11:46:00;78086.47;;;-145.37;81.99
13486;BME280;6815;59.336;17.998;2022-12-07T11:48:54;78104.56;;;-145.37;81.92
13486;BME280;6815;59.336;17.998;2022-12-07T11:51:22;78120.66;;;-145.37;82.41
13486;BME280;6815;59.336;17.998;2022-12-07T11:56:20;78090.50;;;-145.37;82.31
13486;BME280;6815;59.336;17.998;2022-12-07T12:01:26;78074.41;;;-145.37;82.38
13486;BME280;6815;59.336;17.998;2022-12-07T12:04:05;78070.38;;;-145.37;81.94
13486;BME280;6815;59.336;17.998;2022-12-07T12:06:31;78054.28;;;-145.37;81.31
13486;BME280;6815;59.336;17.998;2022-12-07T12:19:42;78056.31;;;-145.37;82.00
13486;BME280;6815;59.336;17.998;2022-12-07T12:22:18;78058.31;;;-145.37;81.57
13486;BME280;6815;59.336;17.998;2022-12-07T12:24:50;78060.31;;;-145.37;81.67
13486;BME280;6815;59.336;17.998;2022-12-07T12:27:30;78058.31;;;-145.37;82.05
13486;BME280;6815;59.336;17.998;2022-12-07T12:30:03;78062.34;;;-145.37;82.00
13486;BME280;6815;59.336;17.998;2022-12-07T12:38:27;78034.19;;;-145.37;81.60
13486;BME280;6815;59.336;17.998;2022-12-07T12:40:55;78026.13;;;-145.37;81.31
13486;BME280;6815;59.336;17.998;2022-12-07T12:43:45;78042.22;;;-145.37;81.16
13486;BME280;6815;59.336;17.998;2022-12-07T12:48:56;78022.09;;;-145.37;80.85
13486;BME280;6815;59.336;17.998;2022-12-07T12:51:41;78056.31;;;-145.37;81.57
13486;BME280;6815;59.336;17.998;2022-12-07T12:54:27;78034.19;;;-145.37;81.46
13486;BME280;6815;59.336;17.998;2022-12-07T12:57:24;78032.16;;;-145.37;81.21
13486;BME280;6815;59.336;17.998;2022-12-07T13:02:29;78052.28;;;-145.37;81.73
13486;BME280;6815;59.336;17.998;2022-12-07T13:15:47;78034.19;;;-145.37;81.32
13486;BME280;6815;59.336;17.998;2022-12-07T13:21:40;78032.16;;;-145.37;81.48
13486;BME280;6815;59.336;17.998;2022-12-07T13:26:18;78048.25;;;-145.37;81.89
13486;BME280;6815;59.336;17.998;2022-12-07T13:29:05;78016.06;;;-145.37;81.29
13486;BME280;6815;59.336;17.998;2022-12-07T13:31:52;78024.13;;;-145.37;80.60
13486;BME280;6815;59.336;17.998;2022-12-07T13:36:56;78028.13;;;-145.37;80.96
13486;BME280;6815;59.336;17.998;2022-12-07T13:39:24;78030.16;;;-145.37;80.52
13486;BME280;6815;59.336;17.998;2022-12-07T13:41:58;78028.13;;;-145.37;80.64
13486;BME280;6815;59.336;17.998;2022-12-07T13:44:26;78028.13;;;-145.37;80.45
13486;BME280;6815;59.336;17.998;2022-12-07T13:47:00;78032.16;;;-145.37;81.03
13486;BME280;6815;59.336;17.998;2022-12-07T13:49:32;78048.25;;;-145.37;80.87
13486;BME280;6815;59.336;17.998;2022-12-07T13:52:28;78062.34;;;-145.37;81.35
13486;BME280;6815;59.336;17.998;2022-12-07T13:57:29;78058.31;;;-145.37;81.48
13486;BME280;6815;59.336;17.998;2022-12-07T13:59:56;78046.25;;;-145.37;81.44
13486;BME280;6815;59.336;17.998;2022-12-07T14:02:26;78056.31;;;-145.37;81.91
13486;BME280;6815;59.336;17.998;2022-12-07T14:05:15;78062.34;;;-145.37;81.95
13486;BME280;6815;59.336;17.998;2022-12-07T14:08:02;78050.28;;;-145.37;81.84
13486;BME280;6815;59.336;17.998;2022-12-07T14:13:02;78048.25;;;-145.37;81.40
13486;BME280;6815;59.336;17.998;2022-12-07T14:15:31;78056.31;;;-145.37;81.24
13486;BME280;6815;59.336;17.998;2022-12-07T14:17:58;78036.19;;;-145.37;81.18
13486;BME280;6815;59.336;17.998;2022-12-07T14:20:37;78052.28;;;-145.37;81.99
13486;BME280;6815;59.336;17.998;2022-12-07T14:23:04;78066.34;;;-145.37;81.61
13486;BME280;6815;59.336;17.998;2022-12-07T14:26:07;78058.31;;;-145.37;81.97
13486;BME280;6815;59.336;17.998;2022-12-07T14:28:34;78044.22;;;-145.37;81.87
13486;BME280;6815;59.336;17.998;2022-12-07T14:31:01;78052.28;;;-145.37;82.03
13486;BME280;6815;59.336;17.998;2022-12-07T14:33:27;78054.28;;;-145.37;82.24
13486;BME280;6815;59.336;17.998;2022-12-07T14:35:54;78064.34;;;-145.37;82.33
13486;BME280;6815;59.336;17.998;2022-12-07T14:38:21;78056.31;;;-145.37;82.17
13486;BME280;6815;59.336;17.998;2022-12-07T14:40:47;78038.19;;;-145.37;82.32
13486;BME280;6815;59.336;17.998;2022-12-07T14:43:16;78056.31;;;-145.37;82.23
13486;BME280;6815;59.336;17.998;2022-12-07T14:45:42;78060.31;;;-145.37;82.25
13486;BME280;6815;59.336;17.998;2022-12-07T14:48:11;78056.31;;;-145.37;82.45
13486;BME280;6815;59.336;17.998;2022-12-07T14:50:39;78052.28;;;-145.37;82.36
13486;BME280;6815;59.336;17.998;2022-12-07T14:53:14;78040.22;;;-145.37;82.33
13486;BME280;6815;59.336;17.998;2022-12-07T14:55:40;78042.22;;;-145.37;81.94
13486;BME280;6815;59.336;17.998;2022-12-07T14:58:05;78052.28;;;-145.37;82.04
13486;BME280;6815;59.336;17.998;2022-12-07T15:00:31;78050.28;;;-145.37;82.07
13486;BME280;6815;59.336;17.998;2022-12-07T15:02:59;78030.16;;;-145.37;81.45
13486;BME280;6815;59.336;17.998;2022-12-07T15:05:24;78028.13;;;-145.37;81.07